Time;durP1;ratioP1;P1;durP2;ratioP2;P2;SDS_P1;SDS_P2;PMS_P1;PMS_P2;Temp;Humidity;BMP_temperature;BMP_pressure;BME280_temperature;BME280_humidity;BME280_pressure;Samples;Min_cycle;Max_cycle;Signal;HPM_P1;HPM_P2
2024/02/03 00:01:04;;;;;;;;;;;;;;;21.51;21.15;98639.31;5057893;28;906;-74
2024/02/03 00:03:30;;;;;;;;;;;;;;;21.28;21.38;98649.31;5058004;28;934;-74
2024/02/03 00:05:55;;;;;;;;;;;;;;;20.98;21.96;98655.03;5056993;28;1323;-74
2024/02/03 00:08:21;;;;;;;;;;;;;;;21.33;21.20;98654.53;5057608;28;957;-74
2024/02/03 00:10:46;;;;;;;;;;;;;;;21.39;21.46;98654.06;5056709;28;998;-75
2024/02/03 00:13:12;;;;;;;;;;;;;;;21.53;21.19;98660.31;5056964;28;924;-74
2024/02/03 00:15:37;;;;;;;;;;;;;;;21.77;21.13;98646.97;5022451;28;1914;-74
2024/02/03 00:18:03;;;;;;;;;;;;;;;21.60;21.01;98650.88;5039975;28;1148;-74
2024/02/03 00:20:29;;;;;;;;;;;;;;;21.55;21.14;98646.53;5038647;28;1325;-75
2024/02/03 00:22:55;;;;;;;;;;;;;;;21.69;21.05;98653.19;5039775;28;1071;-74
2024/02/03 00:25:20;;;;;;;;;;;;;;;21.58;21.14;98648.50;5057529;28;895;-74
2024/02/03 00:27:47;;;;;;;;;;;;;;;21.40;21.14;98655.66;5056160;28;924;-74
2024/02/03 00:30:13;;;;;;;;;;;;;;;21.16;21.61;98652.75;5035140;28;944;-74
2024/02/03 00:32:39;;;;;;;;;;;;;;;21.46;21.24;98654.78;5018811;28;929;-75
2024/02/03 00:35:05;;;;;;;;;;;;;;;21.73;21.07;98651.91;5034026;28;1942;-75
2024/02/03 00:37:30;;;;;;;;;;;;;;;21.26;21.45;98651.81;5018613;28;1508;-74
2024/02/03 00:39:57;;;;;;;;;;;;;;;21.33;21.43;98648.88;5018643;28;1341;-74
2024/02/03 00:42:22;;;;;;;;;;;;;;;21.44;21.27;98642.25;4975822;28;997;-74
2024/02/03 00:44:48;;;;;;;;;;;;;;;21.41;21.31;98645.97;4960344;28;923;-74
2024/02/03 00:47:13;;;;;;;;;;;;;;;21.02;21.71;98641.63;4959996;28;968;-75
2024/02/03 00:49:39;;;;;;;;;;;;;;;21.52;21.22;98635.25;4962511;28;1652;-74
2024/02/03 00:52:04;;;;;;;;;;;;;;;22.49;20.29;98634.34;4937581;29;1180;-75
2024/02/03 00:54:30;;;;;;;;;;;;;;;22.05;20.74;98633.53;4937606;29;1981;-75
2024/02/03 00:56:56;;;;;;;;;;;;;;;21.93;20.73;98632.13;4921319;29;1127;-74
2024/02/03 00:59:22;;;;;;;;;;;;;;;21.44;21.32;98622.44;4937297;29;993;-74
2024/02/03 01:01:47;;;;;;;;;;;;;;;21.69;21.02;98624.84;4950577;28;1244;-74
2024/02/03 01:04:13;;;;;;;;;;;;;;;21.80;21.09;98612.09;4977036;28;1446;-74
2024/02/03 01:06:39;;;;;;;;;;;;;;;21.77;20.84;98629.19;4975736;28;997;-74
2024/02/03 01:09:04;;;;;;;;;;;;;;;21.62;21.01;98622.94;4975877;28;972;-74
2024/02/03 01:11:30;;;;;;;;;;;;;;;21.37;21.46;98629.03;4975722;28;1021;-73
2024/02/03 01:13:56;;;;;;;;;;;;;;;21.51;21.16;98622.34;5013014;28;1906;-74
2024/02/03 01:16:21;;;;;;;;;;;;;;;21.50;21.20;98620.72;5038408;28;924;-74
2024/02/03 01:18:47;;;;;;;;;;;;;;;21.22;21.49;98619.13;5056793;28;1221;-74
2024/02/03 01:21:17;;;;;;;;;;;;;;;21.08;22.10;98622.94;5021753;28;1396;-74
2024/02/03 01:23:43;;;;;;;;;;;;;;;21.05;22.11;98623.81;5038512;28;939;-74
2024/02/03 01:26:08;;;;;;;;;;;;;;;21.21;21.82;98618.31;5055374;28;926;-74
2024/02/03 01:28:34;;;;;;;;;;;;;;;21.12;21.96;98612.38;5038631;28;1201;-74
2024/02/03 01:30:59;;;;;;;;;;;;;;;21.10;21.75;98614.84;5054890;28;1250;-74
2024/02/03 01:33:25;;;;;;;;;;;;;;;21.28;21.58;98609.69;5055389;28;938;-75
2024/02/03 01:35:50;;;;;;;;;;;;;;;21.57;21.45;98612.91;5037362;28;2001;-74
2024/02/03 01:38:17;;;;;;;;;;;;;;;21.57;21.33;98615.75;5056265;28;904;-74
2024/02/03 01:40:42;;;;;;;;;;;;;;;21.40;21.43;98607.53;5055394;28;931;-75
2024/02/03 01:43:08;;;;;;;;;;;;;;;21.23;21.65;98601.69;5038506;28;1063;-74
2024/02/03 01:45:33;;;;;;;;;;;;;;;21.39;21.67;98603.09;5055107;28;911;-74
2024/02/03 01:47:59;;;;;;;;;;;;;;;21.12;21.83;98605.94;5056306;28;999;-74
2024/02/03 01:50:25;;;;;;;;;;;;;;;20.87;22.35;98606.28;5055004;28;1468;-74
2024/02/03 01:52:50;;;;;;;;;;;;;;;21.14;21.87;98609.94;5020446;28;1585;-74
2024/02/03 01:55:16;;;;;;;;;;;;;;;21.23;21.83;98609.38;5056232;28;1913;-74
2024/02/03 01:57:42;;;;;;;;;;;;;;;21.16;22.05;98607.47;5038205;28;1143;-74
2024/02/03 02:00:08;;;;;;;;;;;;;;;21.03;22.03;98598.75;5058637;28;925;-74
2024/02/03 02:02:34;;;;;;;;;;;;;;;21.31;21.74;98594.75;5059993;28;975;-74
2024/02/03 02:05:00;;;;;;;;;;;;;;;21.46;21.36;98597.34;5060195;28;892;-74
2024/02/03 02:07:25;;;;;;;;;;;;;;;21.43;21.70;98603.84;5059117;28;1342;-74
2024/02/03 02:09:52;;;;;;;;;;;;;;;21.01;22.03;98606.09;5041938;28;982;-74
2024/02/03 02:12:18;;;;;;;;;;;;;;;20.72;22.26;98609.31;5042340;28;1179;-74
2024/02/03 02:14:43;;;;;;;;;;;;;;;20.88;22.23;98610.72;5058714;28;1910;-74
2024/02/03 02:17:09;;;;;;;;;;;;;;;21.14;22.01;98604.28;5025425;28;946;-75
2024/02/03 02:19:35;;;;;;;;;;;;;;;21.21;22.06;98604.16;5037662;28;911;-74
2024/02/03 02:22:00;;;;;;;;;;;;;;;21.21;21.83;98607.00;5003357;28;1537;-74
2024/02/03 02:24:26;;;;;;;;;;;;;;;21.00;22.40;98598.84;5037758;28;959;-74
2024/02/03 02:26:52;;;;;;;;;;;;;;;20.99;22.12;98598.03;5037642;28;1021;-74
2024/02/03 02:29:17;;;;;;;;;;;;;;;21.03;22.05;98600.78;5020963;28;1422;-75
2024/02/03 02:31:43;;;;;;;;;;;;;;;21.57;21.43;98597.97;5037868;28;1079;-74
2024/02/03 02:34:08;;;;;;;;;;;;;;;21.20;21.72;98591.25;5004657;28;1913;-74
2024/02/03 02:36:34;;;;;;;;;;;;;;;21.11;22.05;98599.47;5020006;28;1354;-74
2024/02/03 02:38:59;;;;;;;;;;;;;;;21.05;22.15;98589.88;5037344;28;1071;-74
2024/02/03 02:41:25;;;;;;;;;;;;;;;21.33;21.73;98595.09;5020646;28;1085;-74
2024/02/03 02:43:51;;;;;;;;;;;;;;;21.43;21.96;98598.19;5020503;28;984;-74
2024/02/03 02:46:21;;;;;;;;;;;;;;;21.52;21.40;98598.44;5037408;28;836;-74
2024/02/03 02:48:47;;;;;;;;;;;;;;;21.36;21.61;98592.66;5021122;28;921;-74
2024/02/03 02:51:13;;;;;;;;;;;;;;;21.58;21.62;98600.34;5036083;28;1408;-74
2024/02/03 02:53:38;;;;;;;;;;;;;;;21.13;21.85;98602.66;5041145;28;1100;-75
2024/02/03 02:56:04;;;;;;;;;;;;;;;20.99;22.08;98591.59;5058348;28;2000;-74
2024/02/03 02:58:29;;;;;;;;;;;;;;;21.14;22.00;98586.47;5007565;28;1040;-74
2024/02/03 03:00:55;;;;;;;;;;;;;;;21.12;22.32;98578.44;5057809;28;950;-75
2024/02/03 03:03:20;;;;;;;;;;;;;;;21.17;22.05;98586.44;5041312;28;1525;-74
2024/02/03 03:05:46;;;;;;;;;;;;;;;21.42;21.67;98579.59;5058469;28;1412;-74
2024/02/03 03:08:12;;;;;;;;;;;;;;;21.43;21.67;98586.88;5059073;28;866;-74
2024/02/03 03:10:37;;;;;;;;;;;;;;;21.25;21.91;98581.47;5057258;28;940;-74
2024/02/03 03:13:03;;;;;;;;;;;;;;;21.39;22.05;98577.63;5040986;28;890;-74
2024/02/03 03:15:29;;;;;;;;;;;;;;;21.14;22.35;98572.34;5058958;28;1906;-74
2024/02/03 03:17:54;;;;;;;;;;;;;;;21.25;22.19;98576.63;5057621;28;910;-74
2024/02/03 03:20:19;;;;;;;;;;;;;;;21.59;21.55;98578.50;5058020;28;1356;-74
2024/02/03 03:22:45;;;;;;;;;;;;;;;21.22;22.31;98576.66;5024258;28;1122;-74
2024/02/03 03:25:10;;;;;;;;;;;;;;;20.72;22.59;98561.22;5058361;28;991;-74
2024/02/03 03:27:37;;;;;;;;;;;;;;;21.06;22.25;98563.97;5058883;28;979;-74
2024/02/03 03:30:03;;;;;;;;;;;;;;;21.33;21.88;98566.00;5058714;28;848;-74
2024/02/03 03:32:28;;;;;;;;;;;;;;;21.32;22.14;98565.19;5058296;28;864;-74
2024/02/03 03:34:54;;;;;;;;;;;;;;;21.49;21.94;98568.94;5057287;28;1988;-74
2024/02/03 03:37:20;;;;;;;;;;;;;;;21.17;22.28;98568.66;5002004;28;1614;-74
2024/02/03 03:39:48;;;;;;;;;;;;;;;21.48;21.70;98560.91;5034419;28;1475;-74
2024/02/03 03:42:14;;;;;;;;;;;;;;;21.37;21.94;98563.13;5020218;28;975;-74
2024/02/03 03:44:40;;;;;;;;;;;;;;;21.11;22.36;98559.84;5011586;28;1371;-74
2024/02/03 03:47:05;;;;;;;;;;;;;;;21.25;21.94;98553.97;5016468;28;1155;-74
2024/02/03 03:49:32;;;;;;;;;;;;;;;21.47;21.85;98547.97;5016814;28;1094;-74
2024/02/03 03:51:59;;;;;;;;;;;;;;;21.07;22.47;98547.78;5016090;28;1033;-74
2024/02/03 03:54:25;;;;;;;;;;;;;;;21.37;21.82;98546.13;5016243;28;1902;-75
2024/02/03 03:56:50;;;;;;;;;;;;;;;21.46;22.02;98541.50;5016075;28;1237;-74
2024/02/03 03:59:16;;;;;;;;;;;;;;;21.61;21.66;98535.59;5014027;28;1439;-74
2024/02/03 04:01:46;;;;;;;;;;;;;;;21.10;22.42;98535.63;4982705;28;1294;-74
2024/02/03 04:04:12;;;;;;;;;;;;;;;21.12;22.27;98538.00;5015515;28;1512;-74
2024/02/03 04:06:37;;;;;;;;;;;;;;;21.15;22.25;98537.97;4983098;28;1058;-74
2024/02/03 04:09:03;;;;;;;;;;;;;;;21.14;22.22;98527.88;5049730;28;1091;-74
2024/02/03 04:11:29;;;;;;;;;;;;;;;21.15;22.25;98537.97;5040055;28;991;-74
2024/02/03 04:13:54;;;;;;;;;;;;;;;21.22;22.45;98529.34;5056131;28;1352;-74
2024/02/03 04:16:20;;;;;;;;;;;;;;;21.39;22.12;98527.47;5053139;28;1969;-74
2024/02/03 04:18:45;;;;;;;;;;;;;;;21.63;21.72;98530.31;5037687;28;1486;-75
2024/02/03 04:21:11;;;;;;;;;;;;;;;21.04;22.34;98526.03;5036109;28;1439;-74
2024/02/03 04:23:36;;;;;;;;;;;;;;;21.05;22.38;98530.44;5036962;28;933;-75
2024/02/03 04:26:02;;;;;;;;;;;;;;;21.14;22.44;98525.06;5037495;28;911;-74
2024/02/03 04:28:27;;;;;;;;;;;;;;;21.14;22.53;98519.41;5037472;28;1060;-75
2024/02/03 04:30:55;;;;;;;;;;;;;;;21.29;22.24;98520.72;5036611;28;998;-74
2024/02/03 04:33:20;;;;;;;;;;;;;;;21.22;22.30;98518.03;5019199;28;1212;-74
2024/02/03 04:35:46;;;;;;;;;;;;;;;21.41;21.96;98510.06;5052662;28;1975;-74
2024/02/03 04:38:11;;;;;;;;;;;;;;;21.30;22.15;98513.88;5039335;28;1015;-74
2024/02/03 04:40:37;;;;;;;;;;;;;;;21.49;22.06;98508.69;5057530;28;871;-74
2024/02/03 04:43:02;;;;;;;;;;;;;;;21.57;21.83;98501.69;5039559;28;958;-74
2024/02/03 04:45:28;;;;;;;;;;;;;;;21.59;21.80;98490.72;5057014;28;919;-74
2024/02/03 04:47:53;;;;;;;;;;;;;;;21.00;22.54;98500.63;4998739;28;1088;-74
2024/02/03 04:50:19;;;;;;;;;;;;;;;21.04;22.65;98486.41;4998349;28;1447;-74
2024/02/03 04:52:44;;;;;;;;;;;;;;;21.16;22.46;98487.81;5014932;28;981;-74
2024/02/03 04:55:10;;;;;;;;;;;;;;;21.35;22.23;98494.78;5014790;28;1973;-74
2024/02/03 04:57:35;;;;;;;;;;;;;;;21.43;22.08;98496.28;5014799;28;1427;-74
2024/02/03 05:00:01;;;;;;;;;;;;;;;21.58;21.82;98494.78;5014968;28;1001;-74
2024/02/03 05:02:26;;;;;;;;;;;;;;;21.31;22.16;98501.31;5015119;28;987;-75
2024/02/03 05:04:52;;;;;;;;;;;;;;;21.04;22.39;98494.91;5014244;28;1519;-74
2024/02/03 05:07:17;;;;;;;;;;;;;;;21.04;22.76;98492.88;5015060;28;989;-74
2024/02/03 05:09:43;;;;;;;;;;;;;;;21.18;22.47;98497.47;4982345;28;1033;-74
2024/02/03 05:12:08;;;;;;;;;;;;;;;21.38;22.14;98488.28;5014477;28;1326;-74
2024/02/03 05:14:34;;;;;;;;;;;;;;;21.44;22.21;98495.03;4998047;28;1969;-75
2024/02/03 05:17:00;;;;;;;;;;;;;;;21.38;22.02;98503.22;4998383;28;1023;-74
2024/02/03 05:19:27;;;;;;;;;;;;;;;21.37;22.15;98498.00;5027808;28;919;-74
2024/02/03 05:21:53;;;;;;;;;;;;;;;21.30;22.30;98498.94;5039144;28;834;-74
2024/02/03 05:24:18;;;;;;;;;;;;;;;21.45;22.11;98499.47;5038395;28;873;-75
2024/02/03 05:26:44;;;;;;;;;;;;;;;21.05;22.43;98494.47;5022140;28;1167;-75
2024/02/03 05:29:09;;;;;;;;;;;;;;;21.00;22.56;98494.16;5056567;28;775;-75
2024/02/03 05:31:35;;;;;;;;;;;;;;;21.16;22.73;98482.16;5038523;28;1127;-74
2024/02/03 05:34:00;;;;;;;;;;;;;;;21.15;22.69;98481.38;5021298;28;1906;-74
2024/02/03 05:36:26;;;;;;;;;;;;;;;21.20;22.38;98483.72;5038241;28;806;-74
2024/02/03 05:38:51;;;;;;;;;;;;;;;21.27;22.23;98494.91;5038619;28;747;-74
2024/02/03 05:41:17;;;;;;;;;;;;;;;21.48;21.95;98476.75;5055795;28;731;-74
2024/02/03 05:43:42;;;;;;;;;;;;;;;21.60;21.99;98480.97;5021908;28;791;-73
2024/02/03 05:46:08;;;;;;;;;;;;;;;21.40;22.14;98480.13;5038194;28;731;-74
2024/02/03 05:48:34;;;;;;;;;;;;;;;21.08;22.54;98479.44;5037996;28;814;-74
2024/02/03 05:50:59;;;;;;;;;;;;;;;21.20;22.73;98488.56;5055973;28;774;-73
2024/02/03 05:53:25;;;;;;;;;;;;;;;21.29;22.55;98492.41;5055890;28;845;-75
2024/02/03 05:55:50;;;;;;;;;;;;;;;21.25;22.37;98485.25;5055980;28;1914;-74
2024/02/03 05:58:16;;;;;;;;;;;;;;;21.59;22.09;98487.88;5021536;28;1250;-74
2024/02/03 06:00:41;;;;;;;;;;;;;;;21.39;22.06;98478.53;5038286;28;916;-75
2024/02/03 06:03:07;;;;;;;;;;;;;;;20.88;22.79;98477.75;5056381;28;849;-74
2024/02/03 06:05:32;;;;;;;;;;;;;;;21.12;22.78;98487.88;5038434;28;880;-74
2024/02/03 06:07:58;;;;;;;;;;;;;;;21.26;22.49;98479.16;5055736;28;776;-74
2024/02/03 06:10:23;;;;;;;;;;;;;;;21.22;22.57;98481.22;5037834;28;958;-74
2024/02/03 06:12:49;;;;;;;;;;;;;;;21.37;22.29;98475.38;5037630;28;822;-74
2024/02/03 06:15:15;;;;;;;;;;;;;;;21.45;22.20;98476.81;5038122;28;2024;-75
2024/02/03 06:17:40;;;;;;;;;;;;;;;21.32;22.16;98482.31;5038173;28;751;-74
2024/02/03 06:20:06;;;;;;;;;;;;;;;20.78;23.03;98486.00;5055761;28;906;-74
2024/02/03 06:22:31;;;;;;;;;;;;;;;21.12;22.74;98482.22;5056110;28;862;-73
2024/02/03 06:24:57;;;;;;;;;;;;;;;21.17;22.47;98478.91;5055657;28;822;-74
2024/02/03 06:27:22;;;;;;;;;;;;;;;21.22;22.38;98484.06;5038128;28;736;-74
2024/02/03 06:29:48;;;;;;;;;;;;;;;21.43;22.07;98484.94;5037989;28;732;-74
2024/02/03 06:32:13;;;;;;;;;;;;;;;21.37;22.26;98481.81;5037720;28;873;-74
2024/02/03 06:34:39;;;;;;;;;;;;;;;21.32;22.33;98491.59;5055431;28;1890;-74
2024/02/03 06:37:04;;;;;;;;;;;;;;;21.53;22.09;98496.06;5021594;28;1319;-74
2024/02/03 06:39:30;;;;;;;;;;;;;;;21.26;22.59;98484.81;5033286;28;1211;-74
2024/02/03 06:41:55;;;;;;;;;;;;;;;20.92;22.76;98489.84;5017324;28;835;-74
2024/02/03 06:44:21;;;;;;;;;;;;;;;20.78;22.70;98429.44;5017095;28;784;-74
2024/02/03 06:46:47;;;;;;;;;;;;;;;21.47;22.16;98499.84;5020443;28;754;-74
2024/02/03 06:49:12;;;;;;;;;;;;;;;21.45;22.50;98497.44;5020545;28;950;-74
2024/02/03 06:51:38;;;;;;;;;;;;;;;21.45;22.39;98485.31;5020837;28;1130;-74
2024/02/03 06:54:03;;;;;;;;;;;;;;;21.56;22.14;98500.09;5037010;28;1910;-74
2024/02/03 06:56:29;;;;;;;;;;;;;;;21.14;22.74;98485.44;5020539;28;815;-74
2024/02/03 06:58:54;;;;;;;;;;;;;;;21.09;22.68;98494.41;4987377;28;1200;-74
2024/02/03 07:01:20;;;;;;;;;;;;;;;21.23;22.56;98488.50;5020573;28;1223;-74
2024/02/03 07:03:45;;;;;;;;;;;;;;;21.28;22.42;98496.50;5020575;28;907;-75
2024/02/03 07:06:11;;;;;;;;;;;;;;;21.56;22.37;98495.22;5036714;28;830;-75
2024/02/03 07:08:37;;;;;;;;;;;;;;;21.41;22.15;98487.44;5036555;28;759;-75
2024/02/03 07:11:02;;;;;;;;;;;;;;;21.42;22.52;98489.81;5035308;28;936;-74
2024/02/03 07:13:28;;;;;;;;;;;;;;;21.32;22.57;98500.09;5008264;28;1356;-74
2024/02/03 07:15:54;;;;;;;;;;;;;;;21.21;22.59;98493.78;5024289;28;1914;-74
2024/02/03 07:18:19;;;;;;;;;;;;;;;21.17;22.71;98515.69;5058812;28;759;-74
2024/02/03 07:20:45;;;;;;;;;;;;;;;21.27;22.51;98506.22;5024558;28;1265;-75
2024/02/03 07:23:10;;;;;;;;;;;;;;;21.30;22.49;98511.06;5058287;28;747;-74
2024/02/03 07:25:36;;;;;;;;;;;;;;;21.31;22.57;98501.31;5024374;28;835;-75
2024/02/03 07:28:02;;;;;;;;;;;;;;;21.38;22.34;98503.22;5024290;28;1218;-74
2024/02/03 07:30:28;;;;;;;;;;;;;;;21.57;22.21;98498.84;5040856;28;822;-74
2024/02/03 07:32:53;;;;;;;;;;;;;;;21.41;22.33;98498.75;5023958;28;904;-74
2024/02/03 07:35:18;;;;;;;;;;;;;;;21.48;22.33;98488.09;5058123;28;1969;-74
2024/02/03 07:37:44;;;;;;;;;;;;;;;21.54;22.21;98499.69;5040878;28;771;-74
2024/02/03 07:40:10;;;;;;;;;;;;;;;21.34;22.49;98488.34;5058158;28;843;-74
2024/02/03 07:42:35;;;;;;;;;;;;;;;21.16;22.71;98487.81;5058591;28;838;-74
2024/02/03 07:45:01;;;;;;;;;;;;;;;21.12;22.77;98498.41;5024049;28;899;-74
2024/02/03 07:47:26;;;;;;;;;;;;;;;21.04;22.77;98489.25;5040203;28;907;-73
2024/02/03 07:49:52;;;;;;;;;;;;;;;21.10;22.94;98476.19;5040413;28;767;-74
2024/02/03 07:52:18;;;;;;;;;;;;;;;21.16;22.64;98482.16;5040272;28;778;-74
2024/02/03 07:54:43;;;;;;;;;;;;;;;21.40;22.37;98475.31;5058074;28;1967;-74
2024/02/03 07:57:09;;;;;;;;;;;;;;;21.47;22.44;98468.69;5038925;28;1325;-74
2024/02/03 07:59:34;;;;;;;;;;;;;;;21.50;22.22;98479.16;5040094;28;1333;-75
2024/02/03 08:02:00;;;;;;;;;;;;;;;21.42;22.53;98489.00;5040062;28;1250;-74
2024/02/03 08:04:25;;;;;;;;;;;;;;;21.44;22.40;98481.69;5040017;28;758;-75
2024/02/03 08:06:51;;;;;;;;;;;;;;;21.24;22.51;98490.13;5031881;28;1358;-74
2024/02/03 08:09:17;;;;;;;;;;;;;;;21.32;22.56;98476.66;4999488;28;939;-74
2024/02/03 08:11:42;;;;;;;;;;;;;;;21.41;22.34;98481.75;5015941;28;942;-74
2024/02/03 08:14:08;;;;;;;;;;;;;;;21.57;22.14;98473.38;5031988;28;1907;-74
2024/02/03 08:16:33;;;;;;;;;;;;;;;21.62;22.02;98461.53;5015630;28;1154;-74
2024/02/03 08:18:59;;;;;;;;;;;;;;;21.40;22.51;98460.31;4998849;28;915;-75
2024/02/03 08:21:24;;;;;;;;;;;;;;;21.65;22.03;98466.31;5015500;28;777;-74
2024/02/03 08:23:49;;;;;;;;;;;;;;;21.20;22.53;98471.59;5015424;28;811;-74
2024/02/03 08:26:15;;;;;;;;;;;;;;;21.15;22.86;98475.72;4960141;28;983;-74
2024/02/03 08:28:41;;;;;;;;;;;;;;;21.18;22.94;98469.16;4976687;28;827;-74
2024/02/03 08:31:06;;;;;;;;;;;;;;;21.38;22.38;98476.94;4979632;28;988;-74
2024/02/03 08:33:32;;;;;;;;;;;;;;;21.37;22.67;98478.19;4995939;28;826;-74
2024/02/03 08:35:57;;;;;;;;;;;;;;;21.28;22.78;98482.34;4995378;28;1898;-74
2024/02/03 08:38:23;;;;;;;;;;;;;;;21.35;22.58;98472.16;4995853;28;953;-74
2024/02/03 08:40:49;;;;;;;;;;;;;;;21.49;22.37;98471.88;4979235;28;1668;-75
2024/02/03 08:43:14;;;;;;;;;;;;;;;21.54;22.40;98471.38;4963092;28;756;-74
2024/02/03 08:45:39;;;;;;;;;;;;;;;21.65;22.03;98460.66;4995523;28;1004;-74
2024/02/03 08:48:05;;;;;;;;;;;;;;;21.19;22.71;98453.00;4979560;28;883;-74
2024/02/03 08:50:31;;;;;;;;;;;;;;;21.11;23.07;98455.16;4978893;28;910;-74
2024/02/03 08:52:56;;;;;;;;;;;;;;;21.16;22.65;98446.19;4975619;28;1350;-75
2024/02/03 08:55:22;;;;;;;;;;;;;;;21.26;22.76;98447.22;4959660;28;1915;-74
2024/02/03 08:57:48;;;;;;;;;;;;;;;21.30;22.57;98448.78;4959431;28;1528;-74
2024/02/03 09:00:13;;;;;;;;;;;;;;;21.36;22.50;98457.56;4995132;28;1146;-74
2024/02/03 09:02:39;;;;;;;;;;;;;;;21.30;22.47;98453.66;4953232;28;937;-74
2024/02/03 09:05:04;;;;;;;;;;;;;;;21.53;22.55;98455.63;4975445;28;911;-74
2024/02/03 09:07:34;;;;;;;;;;;;;;;21.43;22.60;98448.16;4959532;28;1217;-74
2024/02/03 09:10:00;;;;;;;;;;;;;;;21.06;22.96;98450.00;4959363;28;1140;-74
2024/02/03 09:12:25;;;;;;;;;;;;;;;21.11;22.93;98452.31;4990388;28;846;-74
2024/02/03 09:14:50;;;;;;;;;;;;;;;21.23;22.67;98446.03;4994739;28;1910;-74
2024/02/03 09:17:16;;;;;;;;;;;;;;;21.61;22.44;98440.13;4995113;28;787;-74
2024/02/03 09:19:41;;;;;;;;;;;;;;;21.53;22.31;98449.97;4994940;28;1011;-75
2024/02/03 09:22:07;;;;;;;;;;;;;;;21.32;22.81;98435.00;4994737;28;978;-74
2024/02/03 09:24:32;;;;;;;;;;;;;;;21.57;22.35;98419.56;4995174;28;903;-74
2024/02/03 09:26:58;;;;;;;;;;;;;;;21.37;22.55;98435.72;4978776;28;1127;-74
2024/02/03 09:29:23;;;;;;;;;;;;;;;21.09;22.86;98437.81;4994987;28;924;-74
2024/02/03 09:31:49;;;;;;;;;;;;;;;21.24;22.79;98427.84;5007937;28;799;-74
2024/02/03 09:34:14;;;;;;;;;;;;;;;21.70;22.11;98406.34;5017611;28;1914;-74
2024/02/03 09:36:40;;;;;;;;;;;;;;;21.63;22.22;98403.66;5017587;28;895;-74
2024/02/03 09:39:06;;;;;;;;;;;;;;;21.58;22.15;98390.00;5017751;28;775;-74
2024/02/03 09:41:32;;;;;;;;;;;;;;;21.35;22.52;98375.91;5036560;28;771;-74
2024/02/03 09:43:58;;;;;;;;;;;;;;;21.37;22.76;98367.78;5056343;28;806;-74
2024/02/03 09:46:23;;;;;;;;;;;;;;;21.66;22.32;98351.00;5038658;28;857;-75
2024/02/03 09:48:49;;;;;;;;;;;;;;;21.30;22.58;98327.09;5005618;28;1119;-74
2024/02/03 09:51:14;;;;;;;;;;;;;;;21.02;22.98;98330.44;5038111;28;1143;-74
2024/02/03 09:53:40;;;;;;;;;;;;;;;21.16;23.05;98324.50;5038520;28;778;-75
2024/02/03 09:56:06;;;;;;;;;;;;;;;21.19;22.77;98328.47;5021821;28;1910;-74
2024/02/03 09:58:32;;;;;;;;;;;;;;;21.14;22.79;98318.50;5021805;28;1009;-74
2024/02/03 10:00:57;;;;;;;;;;;;;;;21.46;22.38;98311.41;5014104;28;996;-74
2024/02/03 10:03:23;;;;;;;;;;;;;;;21.36;22.63;98315.25;4997717;28;774;-74
2024/02/03 10:05:50;;;;;;;;;;;;;;;21.45;22.37;98306.94;4958482;28;1006;-74
2024/02/03 10:08:16;;;;;;;;;;;;;;;21.41;22.59;98311.91;4975001;28;983;-74
2024/02/03 10:10:43;;;;;;;;;;;;;;;21.25;22.64;98304.91;4975381;28;976;-74
2024/02/03 10:13:09;;;;;;;;;;;;;;;20.81;23.24;98312.63;4958948;28;1251;-74
2024/02/03 10:15:38;;;;;;;;;;;;;;;21.15;23.06;98302.31;4958919;28;1923;-74
2024/02/03 10:18:06;;;;;;;;;;;;;;;21.18;22.85;98292.94;4958616;28;804;-74
2024/02/03 10:20:32;;;;;;;;;;;;;;;21.33;22.69;98295.06;4944031;28;966;-74
2024/02/03 10:22:57;;;;;;;;;;;;;;;21.31;22.75;98291.88;4979153;28;760;-75
2024/02/03 10:25:28;;;;;;;;;;;;;;;21.39;22.89;98280.41;4978659;28;942;-74
2024/02/03 10:28:03;;;;;;;;;;;;;;;21.71;22.31;98260.69;4962498;28;866;-74
2024/02/03 10:30:35;;;;;;;;;;;;;;;21.51;22.30;98257.91;4946512;28;1272;-75
2024/02/03 10:33:01;;;;;;;;;;;;;;;21.32;22.60;98258.72;4964568;28;910;-74
2024/02/03 10:35:27;;;;;;;;;;;;;;;21.45;22.62;98261.66;4965598;28;1914;-75
2024/02/03 10:37:52;;;;;;;;;;;;;;;21.45;22.47;98250.34;5038816;28;794;-74
2024/02/03 10:40:18;;;;;;;;;;;;;;;21.45;22.52;98256.00;5041984;28;1686;-74
2024/02/03 10:42:44;;;;;;;;;;;;;;;21.75;22.25;98258.53;5024543;28;879;-74
2024/02/03 10:45:10;;;;;;;;;;;;;;;21.83;21.91;98247.88;5041652;28;751;-74
2024/02/03 10:47:37;;;;;;;;;;;;;;;21.23;22.71;98256.44;5041835;28;712;-74
2024/02/03 10:50:04;;;;;;;;;;;;;;;20.93;23.27;98259.47;5024743;28;1405;-74
2024/02/03 10:52:29;;;;;;;;;;;;;;;21.31;22.66;98252.25;5008720;28;1055;-74
2024/02/03 10:54:55;;;;;;;;;;;;;;;21.62;22.22;98254.81;5024540;28;1914;-74
2024/02/03 10:57:20;;;;;;;;;;;;;;;21.43;22.38;98244.31;5025122;28;1069;-74
2024/02/03 10:59:46;;;;;;;;;;;;;;;21.61;22.26;98244.72;5041587;28;846;-74
2024/02/03 11:02:15;;;;;;;;;;;;;;;21.45;22.67;98239.00;5041182;28;724;-74
2024/02/03 11:04:41;;;;;;;;;;;;;;;21.53;22.41;98234.78;5041243;28;760;-74
2024/02/03 11:07:07;;;;;;;;;;;;;;;21.65;22.48;98236.94;5023805;28;958;-74
2024/02/03 11:09:32;;;;;;;;;;;;;;;21.71;22.03;98240.84;5016586;28;840;-74
2024/02/03 11:11:58;;;;;;;;;;;;;;;21.43;22.60;98247.16;5016928;28;916;-74
2024/02/03 11:14:24;;;;;;;;;;;;;;;21.11;23.08;98248.59;4984314;28;1902;-74
2024/02/03 11:16:53;;;;;;;;;;;;;;;21.13;22.87;98246.13;5016589;28;985;-74
2024/02/03 11:19:22;;;;;;;;;;;;;;;21.44;22.59;98235.38;5016732;28;1135;-74
2024/02/03 11:21:48;;;;;;;;;;;;;;;21.60;22.27;98228.97;5000526;28;810;-74
2024/02/03 11:24:14;;;;;;;;;;;;;;;21.61;22.25;98222.09;5013994;28;912;-74
2024/02/03 11:26:39;;;;;;;;;;;;;;;21.72;22.23;98216.97;5016710;28;837;-74
2024/02/03 11:29:05;;;;;;;;;;;;;;;21.52;22.43;98210.56;5016607;28;767;-74
2024/02/03 11:31:31;;;;;;;;;;;;;;;21.52;22.36;98204.91;5016590;28;1132;-74
2024/02/03 11:33:57;;;;;;;;;;;;;;;21.49;22.57;98200.88;5016234;28;901;-74
2024/02/03 11:36:24;;;;;;;;;;;;;;;21.27;22.75;98202.59;4984360;28;1910;-74
2024/02/03 11:38:49;;;;;;;;;;;;;;;21.12;23.10;98199.28;4983699;28;805;-73
2024/02/03 11:41:15;;;;;;;;;;;;;;;20.97;23.31;98192.31;5032349;28;807;-74
2024/02/03 11:43:41;;;;;;;;;;;;;;;21.49;22.51;98188.78;5016089;28;1013;-74
2024/02/03 11:46:09;;;;;;;;;;;;;;;21.45;22.49;98185.22;4996696;28;892;-74
2024/02/03 11:48:35;;;;;;;;;;;;;;;21.48;22.39;98187.97;4980087;28;879;-74
2024/02/03 11:51:01;;;;;;;;;;;;;;;21.53;22.34;98184.63;4997005;28;758;-74
2024/02/03 11:53:27;;;;;;;;;;;;;;;21.70;22.15;98181.81;4980369;28;747;-74
2024/02/03 11:55:54;;;;;;;;;;;;;;;21.24;22.80;98184.47;4980113;28;1899;-74
2024/02/03 11:58:20;;;;;;;;;;;;;;;20.88;23.25;98172.28;4996187;28;1186;-74
2024/02/03 12:00:46;;;;;;;;;;;;;;;21.26;22.82;98170.66;4948107;28;1105;-74
2024/02/03 12:03:12;;;;;;;;;;;;;;;21.33;22.56;98162.03;4980100;28;772;-74
2024/02/03 12:05:37;;;;;;;;;;;;;;;21.56;22.36;98151.81;4980103;28;803;-74
2024/02/03 12:08:03;;;;;;;;;;;;;;;21.58;22.59;98157.81;4980227;28;709;-75
2024/02/03 12:10:29;;;;;;;;;;;;;;;21.42;22.80;98157.81;4996307;28;858;-74
2024/02/03 12:13:03;;;;;;;;;;;;;;;21.43;22.61;98148.88;4979840;28;770;-74
2024/02/03 12:15:29;;;;;;;;;;;;;;;21.42;22.71;98149.31;4996271;28;1918;-74
2024/02/03 12:17:58;;;;;;;;;;;;;;;21.22;22.80;98138.81;4992780;28;917;-74
2024/02/03 12:20:24;;;;;;;;;;;;;;;21.08;23.10;98148.41;4995933;28;774;-74
2024/02/03 12:22:51;;;;;;;;;;;;;;;21.55;22.50;98131.19;4979888;28;882;-74
2024/02/03 12:25:16;;;;;;;;;;;;;;;21.82;22.14;98138.63;4980014;28;776;-75
2024/02/03 12:27:42;;;;;;;;;;;;;;;21.65;22.31;98137.81;4979438;28;736;-74
2024/02/03 12:30:15;;;;;;;;;;;;;;;21.76;22.22;98135.53;4995690;28;826;-74
2024/02/03 12:32:40;;;;;;;;;;;;;;;21.64;22.18;98135.44;4995670;28;752;-74
2024/02/03 12:35:06;;;;;;;;;;;;;;;21.41;22.47;98130.75;4963139;28;1915;-74
2024/02/03 12:37:31;;;;;;;;;;;;;;;21.20;22.91;98132.81;4995939;28;716;-74
2024/02/03 12:39:57;;;;;;;;;;;;;;;21.24;22.69;98125.03;4979581;28;850;-74
2024/02/03 12:42:22;;;;;;;;;;;;;;;21.33;22.75;98128.06;4962935;28;1278;-74
2024/02/03 12:44:48;;;;;;;;;;;;;;;21.53;22.67;98121.53;4995194;28;885;-74
2024/02/03 12:47:13;;;;;;;;;;;;;;;21.42;22.61;98121.00;4995649;28;877;-74
2024/02/03 12:49:39;;;;;;;;;;;;;;;21.67;22.38;98121.19;4995684;28;905;-74
2024/02/03 12:52:04;;;;;;;;;;;;;;;21.33;23.01;98113.91;4995165;28;1157;-74
2024/02/03 12:54:30;;;;;;;;;;;;;;;21.64;22.40;98116.41;5005379;28;1909;-74